Time;durP1;ratioP1;P1;durP2;ratioP2;P2;SDS_P1;SDS_P2;PMS_P1;PMS_P2;Temp;Humidity;BMP_temperature;BMP_pressure;BME280_temperature;BME280_humidity;BME280_pressure;Samples;Min_cycle;Max_cycle;Signal;HPM_P1;HPM_P2
2022/02/22 00:01:07;;;;;;;6.72;1.83;;;4.90;99.90;;;;;;4990096;28;20084;-67
2022/02/22 00:03:36;;;;;;;6.20;1.50;;;4.90;99.90;;;;;;4989685;28;20470;-67
2022/02/22 00:06:02;;;;;;;7.40;1.77;;;4.90;99.90;;;;;;4990452;28;20382;-70
2022/02/22 00:08:28;;;;;;;6.55;1.50;;;4.90;99.90;;;;;;4988757;28;20410;-67
2022/02/22 00:10:53;;;;;;;6.18;1.20;;;4.90;99.90;;;;;;4988362;28;20027;-67
2022/02/22 00:13:19;;;;;;;6.60;1.50;;;4.90;99.90;;;;;;4989582;28;20065;-68
2022/02/22 00:15:44;;;;;;;5.97;1.30;;;4.90;99.90;;;;;;4989025;28;20023;-67
2022/02/22 00:18:10;;;;;;;6.95;1.50;;;4.90;99.90;;;;;;4990069;28;20057;-68
2022/02/22 00:20:36;;;;;;;5.20;1.25;;;4.90;99.90;;;;;;4989889;28;20497;-67
2022/02/22 00:23:05;;;;;;;7.65;1.73;;;4.90;99.90;;;;;;4989568;28;20449;-67
2022/02/22 00:25:31;;;;;;;4.78;1.20;;;4.90;99.90;;;;;;4989822;28;20058;-68
2022/02/22 00:27:56;;;;;;;5.28;1.27;;;4.90;99.90;;;;;;4984825;28;20031;-68
2022/02/22 00:30:22;;;;;;;2.55;1.20;;;4.90;99.90;;;;;;4988675;28;20073;-68
2022/02/22 00:32:47;;;;;;;5.57;1.30;;;4.90;99.90;;;;;;4990729;28;20030;-67
2022/02/22 00:35:14;;;;;;;4.78;1.50;;;4.80;99.90;;;;;;4990922;28;20077;-70
2022/02/22 00:37:41;;;;;;;7.90;1.50;;;4.90;99.90;;;;;;4988911;28;20027;-68
2022/02/22 00:40:08;;;;;;;11.77;1.52;;;4.80;99.90;;;;;;4990824;28;20097;-68
2022/02/22 00:42:35;;;;;;;8.95;1.92;;;4.90;99.90;;;;;;4989666;28;20414;-67
2022/02/22 00:45:01;;;;;;;4.53;1.20;;;4.80;99.90;;;;;;4990581;28;20027;-68
2022/02/22 00:47:27;;;;;;;5.43;1.40;;;4.80;99.90;;;;;;4988703;28;20635;-67
2022/02/22 00:49:53;;;;;;;8.38;1.50;;;4.80;99.90;;;;;;4990841;28;20467;-67
2022/02/22 00:52:19;;;;;;;8.70;1.70;;;4.80;99.90;;;;;;4989344;28;20034;-67
2022/02/22 00:54:45;;;;;;;6.28;1.25;;;4.80;99.90;;;;;;4981050;28;20039;-67
2022/02/22 00:57:10;;;;;;;9.40;1.67;;;4.80;99.90;;;;;;4980628;28;20015;-67
2022/02/22 00:59:36;;;;;;;3.90;1.25;;;4.90;99.90;;;;;;4989465;28;20026;-67
2022/02/22 01:02:01;;;;;;;6.47;1.42;;;4.80;99.90;;;;;;4990151;28;20035;-67
2022/02/22 01:04:27;;;;;;;10.20;1.90;;;4.90;99.90;;;;;;4990355;28;20034;-68
2022/02/22 01:06:53;;;;;;;9.70;1.48;;;4.90;99.90;;;;;;4971829;28;20026;-67
2022/02/22 01:09:18;;;;;;;5.30;1.20;;;4.90;99.90;;;;;;4989040;28;20105;-67
2022/02/22 01:11:44;;;;;;;2.35;1.40;;;4.90;99.90;;;;;;4989586;28;20053;-67
2022/02/22 01:14:10;;;;;;;8.35;1.80;;;4.90;99.90;;;;;;4983071;28;20106;-67
2022/02/22 01:16:35;;;;;;;7.10;1.42;;;4.90;99.90;;;;;;4994028;28;20030;-67
2022/02/22 01:19:01;;;;;;;11.55;1.42;;;4.90;99.90;;;;;;4996809;28;20033;-67
2022/02/22 01:21:27;;;;;;;11.48;1.27;;;4.90;99.90;;;;;;4997311;28;20023;-67
2022/02/22 01:23:52;;;;;;;10.55;1.75;;;4.90;99.90;;;;;;4994808;28;20026;-67
2022/02/22 01:26:18;;;;;;;8.27;1.20;;;4.90;99.90;;;;;;4992907;28;20035;-67
2022/02/22 01:28:44;;;;;;;7.50;1.27;;;4.90;99.90;;;;;;4990853;28;20039;-67
2022/02/22 01:31:11;;;;;;;5.32;1.50;;;4.90;99.90;;;;;;4986066;28;20033;-67
2022/02/22 01:33:37;;;;;;;6.68;1.35;;;4.90;99.90;;;;;;4992389;28;20485;-67
2022/02/22 01:36:02;;;;;;;6.25;1.50;;;4.90;99.90;;;;;;4987875;28;20027;-67
2022/02/22 01:38:28;;;;;;;9.55;1.50;;;4.90;99.90;;;;;;4973983;28;20026;-67
2022/02/22 01:40:56;;;;;;;8.07;1.35;;;4.90;99.90;;;;;;4993293;28;20101;-67
2022/02/22 01:43:22;;;;;;;5.57;1.52;;;4.90;99.90;;;;;;4992207;28;20030;-69
2022/02/22 01:45:49;;;;;;;14.02;1.85;;;4.90;99.90;;;;;;4993334;28;20023;-67
2022/02/22 01:48:14;;;;;;;5.22;1.50;;;4.90;99.90;;;;;;4992572;28;20056;-67
2022/02/22 01:50:40;;;;;;;9.55;1.75;;;4.90;99.90;;;;;;4992467;28;20030;-67
2022/02/22 01:53:06;;;;;;;7.13;1.42;;;4.90;99.90;;;;;;4975728;28;20101;-67
2022/02/22 01:55:32;;;;;;;8.23;1.58;;;4.90;99.90;;;;;;4992384;28;20022;-67
2022/02/22 01:57:58;;;;;;;6.78;1.70;;;4.80;99.90;;;;;;4992270;28;20084;-67
2022/02/22 02:00:27;;;;;;;9.02;1.73;;;4.80;99.90;;;;;;4992819;28;20015;-67
2022/02/22 02:02:53;;;;;;;7.85;1.80;;;4.80;99.90;;;;;;4975349;28;20359;-67
2022/02/22 02:05:19;;;;;;;8.35;1.48;;;4.90;99.90;;;;;;4989552;28;20088;-67
2022/02/22 02:07:44;;;;;;;5.88;1.48;;;4.90;99.90;;;;;;4990092;28;20455;-68
2022/02/22 02:10:10;;;;;;;5.32;1.50;;;4.90;99.90;;;;;;4991875;28;20030;-68
2022/02/22 02:12:39;;;;;;;8.82;2.05;;;4.80;99.90;;;;;;4990297;28;20034;-68
2022/02/22 02:15:07;;;;;;;3.25;1.20;;;4.80;99.90;;;;;;4985210;28;20037;-67
2022/02/22 02:17:34;;;;;;;8.55;1.63;;;4.80;99.90;;;;;;4991071;28;20033;-67
2022/02/22 02:20:04;;;;;;;5.70;1.67;;;4.80;99.90;;;;;;4993100;28;20034;-70
2022/02/22 02:22:30;;;;;;;6.57;1.40;;;4.80;99.90;;;;;;4991897;28;20034;-67
2022/02/22 02:24:56;;;;;;;8.57;1.67;;;4.90;99.90;;;;;;4992331;28;20035;-69
2022/02/22 02:27:21;;;;;;;7.43;1.75;;;4.90;99.90;;;;;;4990855;28;20026;-67
2022/02/22 02:29:48;;;;;;;8.02;1.73;;;4.80;99.90;;;;;;4992195;28;20046;-67
2022/02/22 02:32:14;;;;;;;6.40;1.60;;;4.80;99.90;;;;;;4992002;28;20503;-67
2022/02/22 02:34:39;;;;;;;4.43;1.70;;;4.80;99.90;;;;;;4992285;28;20102;-70
2022/02/22 02:37:05;;;;;;;6.60;1.33;;;4.80;99.90;;;;;;4991291;28;20044;-67
2022/02/22 02:39:31;;;;;;;4.68;1.40;;;4.80;99.90;;;;;;4991196;28;20118;-67
2022/02/22 02:41:57;;;;;;;4.45;1.30;;;4.80;99.90;;;;;;4992148;28;20053;-68
2022/02/22 02:44:24;;;;;;;5.28;1.33;;;4.80;99.90;;;;;;4992057;28;20101;-68
2022/02/22 02:46:50;;;;;;;8.95;1.38;;;4.80;99.90;;;;;;4991803;28;20089;-68
2022/02/22 02:49:17;;;;;;;4.30;1.73;;;4.80;99.90;;;;;;4991421;28;20467;-69
2022/02/22 02:51:44;;;;;;;9.57;1.85;;;4.80;99.90;;;;;;4990907;28;20027;-68
2022/02/22 02:54:11;;;;;;;7.57;1.60;;;4.80;99.90;;;;;;4991287;28;20775;-68
2022/02/22 02:56:37;;;;;;;6.53;1.40;;;4.80;99.90;;;;;;4973720;28;20029;-67
2022/02/22 02:59:06;;;;;;;7.00;1.60;;;4.70;99.90;;;;;;4991124;28;20057;-68
2022/02/22 03:01:34;;;;;;;6.78;1.80;;;4.70;99.90;;;;;;4991039;28;20022;-68
2022/02/22 03:04:00;;;;;;;10.93;1.63;;;4.60;99.90;;;;;;4992159;28;20486;-68
2022/02/22 03:06:26;;;;;;;7.38;1.40;;;4.60;99.90;;;;;;4990881;28;20045;-68
2022/02/22 03:08:52;;;;;;;9.77;1.40;;;4.60;99.90;;;;;;4990194;28;20034;-68
2022/02/22 03:11:17;;;;;;;7.45;1.58;;;4.60;99.90;;;;;;4991823;28;20034;-68
2022/02/22 03:13:43;;;;;;;4.03;1.08;;;4.50;99.90;;;;;;4983910;28;20026;-68
2022/02/22 03:16:09;;;;;;;5.10;1.10;;;4.50;99.90;;;;;;4987986;28;20421;-68
2022/02/22 03:18:38;;;;;;;4.43;1.33;;;4.50;99.90;;;;;;4985563;28;20019;-68
2022/02/22 03:21:05;;;;;;;5.75;1.45;;;4.40;99.90;;;;;;4972944;28;20037;-68
2022/02/22 03:23:31;;;;;;;7.15;1.25;;;4.40;99.90;;;;;;4990267;28;20030;-68
2022/02/22 03:25:57;;;;;;;7.57;1.65;;;4.40;99.90;;;;;;4982760;28;20043;-68
2022/02/22 03:28:22;;;;;;;8.30;1.40;;;4.40;99.90;;;;;;4978078;28;20033;-68
2022/02/22 03:30:48;;;;;;;7.47;1.75;;;4.30;99.90;;;;;;4990694;28;20112;-68
2022/02/22 03:33:15;;;;;;;10.70;1.83;;;4.30;99.90;;;;;;4990726;28;20022;-68
2022/02/22 03:35:41;;;;;;;6.28;1.48;;;4.30;99.90;;;;;;4990539;28;20104;-68
2022/02/22 03:38:08;;;;;;;8.60;1.58;;;4.30;99.90;;;;;;4989701;28;20701;-68
2022/02/22 03:40:34;;;;;;;6.85;1.50;;;4.30;99.90;;;;;;4991293;28;20118;-67
2022/02/22 03:42:59;;;;;;;6.10;1.55;;;4.30;99.90;;;;;;4990850;28;20076;-68
2022/02/22 03:45:25;;;;;;;7.20;1.63;;;4.30;99.90;;;;;;4973605;28;20667;-68
2022/02/22 03:47:51;;;;;;;7.18;1.50;;;4.30;99.90;;;;;;4990519;28;20105;-68
2022/02/22 03:50:17;;;;;;;8.77;1.90;;;4.30;99.90;;;;;;4985273;28;20035;-68
2022/02/22 03:52:43;;;;;;;10.23;1.50;;;4.30;99.90;;;;;;4969068;28;20034;-68
2022/02/22 03:55:09;;;;;;;9.82;1.70;;;4.40;99.90;;;;;;4988358;28;20029;-68
2022/02/22 03:57:36;;;;;;;6.65;1.95;;;4.40;99.90;;;;;;4989851;28;20022;-68
2022/02/22 04:00:05;;;;;;;9.18;1.63;;;4.30;99.90;;;;;;5001341;28;20026;-68
2022/02/22 04:02:31;;;;;;;6.95;1.33;;;4.30;99.90;;;;;;5010353;28;20350;-68
2022/02/22 04:04:57;;;;;;;9.65;1.60;;;4.30;99.90;;;;;;4993460;28;20034;-68
2022/02/22 04:07:22;;;;;;;12.57;1.88;;;4.30;99.90;;;;;;4972441;28;20034;-68
2022/02/22 04:09:48;;;;;;;8.18;2.00;;;4.30;99.90;;;;;;4989876;28;20041;-68
2022/02/22 04:12:15;;;;;;;9.85;1.77;;;4.30;99.90;;;;;;4990394;28;20048;-68
2022/02/22 04:14:41;;;;;;;7.13;1.63;;;4.30;99.90;;;;;;4988407;28;20022;-68
2022/02/22 04:17:07;;;;;;;10.18;1.50;;;4.30;99.90;;;;;;4981978;28;20550;-68
2022/02/22 04:19:32;;;;;;;7.53;1.92;;;4.30;99.90;;;;;;4989954;28;20027;-67
2022/02/22 04:21:58;;;;;;;10.13;1.60;;;4.30;99.90;;;;;;4990471;28;20530;-68
2022/02/22 04:24:23;;;;;;;10.18;1.90;;;4.30;99.90;;;;;;4990544;28;20031;-68
2022/02/22 04:26:49;;;;;;;8.00;1.58;;;4.30;99.90;;;;;;4989998;28;20490;-68
2022/02/22 04:29:14;;;;;;;8.73;2.00;;;4.30;99.90;;;;;;4989567;28;20061;-68
2022/02/22 04:31:40;;;;;;;8.32;1.83;;;4.30;99.90;;;;;;4989462;28;20022;-68
2022/02/22 04:34:06;;;;;;;6.32;1.75;;;4.30;99.90;;;;;;4990354;28;20028;-68
2022/02/22 04:36:33;;;;;;;10.65;2.00;;;4.40;99.90;;;;;;4990065;28;20030;-68
2022/02/22 04:38:59;;;;;;;5.65;1.60;;;4.40;99.90;;;;;;4989252;28;20026;-68
2022/02/22 04:41:25;;;;;;;9.40;1.95;;;4.30;99.90;;;;;;4972290;28;20037;-68
2022/02/22 04:43:50;;;;;;;3.47;1.38;;;4.30;99.90;;;;;;4990745;28;20042;-68
2022/02/22 04:46:16;;;;;;;10.80;1.67;;;4.30;99.90;;;;;;4990275;28;20053;-68
2022/02/22 04:48:41;;;;;;;7.80;1.35;;;4.30;99.90;;;;;;4989054;28;20502;-68
2022/02/22 04:51:07;;;;;;;5.45;1.45;;;4.30;99.90;;;;;;4993722;28;20101;-68
2022/02/22 04:53:33;;;;;;;7.45;1.42;;;4.30;99.90;;;;;;4993682;28;20113;-68
2022/02/22 04:55:58;;;;;;;10.13;1.70;;;4.30;99.90;;;;;;4994564;28;20140;-68
2022/02/22 04:58:24;;;;;;;10.77;1.80;;;4.30;99.90;;;;;;4992477;28;20432;-68
2022/02/22 05:00:51;;;;;;;8.27;1.60;;;4.30;99.90;;;;;;4993749;28;20026;-68
2022/02/22 05:03:17;;;;;;;8.07;1.33;;;4.30;99.90;;;;;;4993096;28;20061;-68
2022/02/22 05:05:43;;;;;;;9.85;1.25;;;4.30;99.90;;;;;;4994233;28;20030;-67
2022/02/22 05:08:08;;;;;;;10.25;1.40;;;4.30;99.90;;;;;;4992661;28;20076;-67
2022/02/22 05:10:34;;;;;;;9.25;1.92;;;4.30;99.90;;;;;;4993932;28;20482;-67
2022/02/22 05:12:59;;;;;;;8.82;2.20;;;4.30;99.90;;;;;;4993415;28;20077;-67
2022/02/22 05:15:25;;;;;;;10.48;2.08;;;4.20;99.90;;;;;;4969182;28;20030;-67
2022/02/22 05:17:51;;;;;;;12.65;2.28;;;4.20;99.90;;;;;;4983388;28;20022;-67
2022/02/22 05:20:17;;;;;;;12.82;2.20;;;4.20;99.90;;;;;;4993485;28;20093;-67
2022/02/22 05:22:44;;;;;;;11.57;1.77;;;4.10;99.90;;;;;;4992846;28;20105;-67
2022/02/22 05:25:12;;;;;;;6.43;1.88;;;4.10;99.90;;;;;;4993082;28;20114;-67
2022/02/22 05:27:38;;;;;;;5.93;1.73;;;4.20;99.90;;;;;;4992110;28;20052;-72
2022/02/22 05:30:05;;;;;;;12.00;2.00;;;4.10;99.90;;;;;;4995048;22;20355;-74
2022/02/22 05:32:31;;;;;;;6.97;1.50;;;4.20;99.90;;;;;;4991775;28;20339;-74
2022/02/22 05:34:58;;;;;;;10.27;2.42;;;4.20;99.90;;;;;;4993222;28;20026;-73
2022/02/22 05:37:24;;;;;;;6.00;1.45;;;4.20;99.90;;;;;;4973698;28;20026;-74
2022/02/22 05:39:50;;;;;;;8.20;1.65;;;4.20;99.90;;;;;;4993365;28;20041;-74
2022/02/22 05:42:16;;;;;;;8.90;1.98;;;4.20;99.90;;;;;;4974877;28;20031;-74
2022/02/22 05:44:41;;;;;;;9.05;1.80;;;4.20;99.90;;;;;;4993220;28;20033;-73
2022/02/22 05:47:07;;;;;;;4.28;1.70;;;4.20;99.90;;;;;;4991995;28;20133;-73
2022/02/22 05:49:32;;;;;;;5.43;2.03;;;4.20;99.90;;;;;;4992608;28;20049;-74
2022/02/22 05:51:58;;;;;;;9.73;1.67;;;4.20;99.90;;;;;;4991818;28;20434;-72
2022/02/22 05:54:24;;;;;;;9.57;1.92;;;4.20;99.90;;;;;;4992391;28;20038;-72
2022/02/22 05:56:49;;;;;;;8.93;1.90;;;4.20;99.90;;;;;;4992351;28;20030;-72
2022/02/22 05:59:15;;;;;;;6.93;1.90;;;4.20;99.90;;;;;;4991287;28;20018;-72
2022/02/22 06:01:43;;;;;;;3.95;1.85;;;4.20;99.90;;;;;;4974822;28;20069;-73
2022/02/22 06:04:10;;;;;;;9.90;2.58;;;4.20;99.90;;;;;;4975523;28;20030;-73
2022/02/22 06:06:36;;;;;;;9.18;2.00;;;4.20;99.90;;;;;;4991777;28;20475;-73
2022/02/22 06:09:02;;;;;;;7.32;1.50;;;4.30;99.90;;;;;;4973267;28;20045;-73
2022/02/22 06:11:28;;;;;;;10.00;1.67;;;4.20;99.90;;;;;;4991943;28;20026;-73
2022/02/22 06:13:53;;;;;;;7.00;1.80;;;4.30;99.90;;;;;;4973182;28;20117;-71
2022/02/22 06:16:19;;;;;;;9.80;2.25;;;4.30;99.90;;;;;;4972494;28;20033;-73
2022/02/22 06:18:45;;;;;;;13.25;2.08;;;4.30;99.90;;;;;;4990354;28;20053;-73
2022/02/22 06:21:10;;;;;;;8.85;2.22;;;4.30;99.90;;;;;;4991219;28;20415;-71
2022/02/22 06:23:36;;;;;;;9.70;1.80;;;4.30;99.90;;;;;;4980733;28;20443;-73
2022/02/22 06:26:02;;;;;;;6.95;2.20;;;4.30;99.90;;;;;;4990915;28;20026;-72
2022/02/22 06:28:27;;;;;;;7.88;1.90;;;4.30;99.90;;;;;;4990567;28;20109;-72
2022/02/22 06:30:53;;;;;;;11.65;2.05;;;4.30;99.90;;;;;;4992111;28;20025;-73
2022/02/22 06:33:18;;;;;;;8.48;1.85;;;4.30;99.90;;;;;;4973559;28;20034;-72
2022/02/22 06:35:44;;;;;;;7.75;2.40;;;4.30;99.90;;;;;;4992380;28;20022;-72
2022/02/22 06:38:09;;;;;;;14.02;2.63;;;4.30;99.90;;;;;;4989880;28;20102;-72
2022/02/22 06:40:36;;;;;;;6.25;1.80;;;4.40;99.90;;;;;;4992153;28;20034;-72
2022/02/22 06:43:02;;;;;;;8.65;1.67;;;4.30;99.90;;;;;;4973411;28;20026;-72
2022/02/22 06:45:28;;;;;;;9.73;2.15;;;4.30;99.90;;;;;;4974311;28;20022;-73
2022/02/22 06:47:54;;;;;;;11.15;2.45;;;4.30;99.90;;;;;;4990133;28;20491;-72
2022/02/22 06:50:19;;;;;;;6.45;1.90;;;4.30;99.90;;;;;;4991719;28;20076;-72
2022/02/22 06:52:45;;;;;;;8.43;2.15;;;4.30;99.90;;;;;;4991140;28;20482;-72
2022/02/22 06:55:13;;;;;;;9.77;2.10;;;4.30;99.90;;;;;;4990671;28;20117;-72
2022/02/22 06:57:39;;;;;;;4.97;1.55;;;4.30;99.90;;;;;;4991080;28;20045;-71
2022/02/22 07:00:09;;;;;;;7.07;1.80;;;4.40;99.90;;;;;;4991056;28;20022;-72
2022/02/22 07:02:38;;;;;;;16.33;2.35;;;4.40;99.90;;;;;;4973389;28;20073;-72
2022/02/22 07:05:05;;;;;;;8.38;1.90;;;4.30;99.90;;;;;;4973940;28;20027;-72
2022/02/22 07:07:31;;;;;;;7.22;1.70;;;4.40;99.90;;;;;;4989663;28;20046;-72
2022/02/22 07:09:56;;;;;;;14.65;3.22;;;4.30;99.90;;;;;;4992460;28;20030;-72
2022/02/22 07:12:22;;;;;;;11.32;1.92;;;4.30;99.90;;;;;;4977488;28;20098;-72
2022/02/22 07:14:47;;;;;;;8.48;1.85;;;4.30;99.90;;;;;;4972327;28;20038;-72
2022/02/22 07:17:13;;;;;;;11.23;1.98;;;4.30;99.90;;;;;;4980872;28;20041;-72
2022/02/22 07:19:39;;;;;;;7.18;1.70;;;4.30;99.90;;;;;;4995682;28;20522;-72
2022/02/22 07:22:05;;;;;;;6.18;1.55;;;4.40;99.90;;;;;;4991425;28;20037;-72
2022/02/22 07:24:31;;;;;;;7.47;2.22;;;4.60;99.90;;;;;;4974461;28;20053;-72
2022/02/22 07:26:56;;;;;;;10.18;1.95;;;4.70;99.90;;;;;;4991295;28;20480;-73
2022/02/22 07:29:22;;;;;;;5.10;1.70;;;4.90;99.90;;;;;;4985574;28;20049;-71
2022/02/22 07:31:48;;;;;;;5.45;1.80;;;5.50;99.90;;;;;;4989690;28;20048;-71
2022/02/22 07:34:13;;;;;;;6.95;1.70;;;6.00;99.90;;;;;;4991526;28;20038;-74
2022/02/22 07:36:39;;;;;;;11.32;2.10;;;6.40;99.90;;;;;;4991717;28;20037;-72
2022/02/22 07:39:05;;;;;;;10.02;1.70;;;6.50;99.90;;;;;;4985158;28;20021;-72
2022/02/22 07:41:31;;;;;;;11.13;1.75;;;6.30;99.90;;;;;;4973797;28;20030;-73
2022/02/22 07:43:57;;;;;;;9.25;2.47;;;6.00;99.90;;;;;;4988990;28;20033;-73
2022/02/22 07:46:23;;;;;;;7.78;1.90;;;6.40;99.90;;;;;;4990604;28;20046;-72
2022/02/22 07:48:49;;;;;;;8.25;2.08;;;6.70;99.90;;;;;;4965468;28;20026;-71
2022/02/22 07:51:19;;;;;;;11.57;2.50;;;6.60;99.90;;;;;;4990246;28;20044;-72
2022/02/22 07:53:46;;;;;;;11.98;1.90;;;6.70;99.90;;;;;;4978364;28;20442;-73
2022/02/22 07:56:12;;;;;;;7.70;1.60;;;6.50;99.90;;;;;;4990670;28;20062;-71
2022/02/22 07:58:38;;;;;;;6.38;1.50;;;6.20;99.90;;;;;;4990409;28;20053;-71
2022/02/22 08:01:05;;;;;;;6.80;1.48;;;6.10;99.90;;;;;;4989923;28;20027;-72
2022/02/22 08:03:31;;;;;;;3.63;1.40;;;5.90;99.90;;;;;;4991354;28;20038;-72
2022/02/22 08:05:57;;;;;;;4.93;1.63;;;5.70;99.90;;;;;;4990901;28;20041;-72
2022/02/22 08:08:22;;;;;;;7.00;1.70;;;5.70;99.90;;;;;;4972859;28;20034;-71
2022/02/22 08:10:48;;;;;;;12.65;1.88;;;5.60;99.90;;;;;;4990597;28;20026;-71
2022/02/22 08:13:14;;;;;;;9.20;1.90;;;5.50;99.90;;;;;;4990901;28;20479;-71
2022/02/22 08:15:39;;;;;;;5.90;1.60;;;5.40;99.90;;;;;;4980984;28;20034;-72
2022/02/22 08:18:05;;;;;;;6.43;2.03;;;5.40;99.90;;;;;;4972073;28;20015;-71
2022/02/22 08:20:30;;;;;;;6.20;1.70;;;5.40;99.90;;;;;;4990421;28;20022;-71
2022/02/22 08:22:56;;;;;;;5.85;1.52;;;5.30;99.90;;;;;;4991351;28;20097;-71
2022/02/22 08:25:22;;;;;;;9.52;1.70;;;5.50;99.90;;;;;;4992534;28;20027;-71
2022/02/22 08:27:47;;;;;;;9.10;1.75;;;5.50;99.90;;;;;;4994419;28;20027;-72
2022/02/22 08:30:13;;;;;;;6.00;1.58;;;5.40;99.90;;;;;;4993887;28;20393;-70
2022/02/22 08:32:40;;;;;;;8.13;1.60;;;5.50;99.90;;;;;;4994970;28;20089;-71
2022/02/22 08:35:06;;;;;;;5.95;1.85;;;5.60;99.90;;;;;;4975513;28;20029;-72
2022/02/22 08:37:31;;;;;;;7.03;1.77;;;5.70;99.90;;;;;;4994258;28;20033;-71
2022/02/22 08:39:57;;;;;;;8.77;1.80;;;5.70;99.90;;;;;;4988132;28;20499;-72
2022/02/22 08:42:23;;;;;;;13.15;2.15;;;5.80;99.90;;;;;;4991351;28;20643;-70
2022/02/22 08:44:49;;;;;;;8.20;1.70;;;5.80;99.90;;;;;;4993661;28;20479;-69
2022/02/22 08:47:14;;;;;;;12.82;2.22;;;5.80;99.90;;;;;;4993211;28;20034;-72
2022/02/22 08:49:41;;;;;;;5.55;1.50;;;5.70;99.90;;;;;;4994271;28;20038;-72
2022/02/22 08:52:07;;;;;;;11.80;2.10;;;5.70;99.90;;;;;;4994129;28;20027;-72
2022/02/22 08:54:32;;;;;;;8.73;1.60;;;5.70;99.90;;;;;;4989184;28;20402;-71
2022/02/22 08:56:58;;;;;;;9.07;2.08;;;5.70;99.90;;;;;;4993187;28;20135;-71
2022/02/22 08:59:24;;;;;;;5.07;1.50;;;5.70;99.90;;;;;;4992718;28;20044;-74
2022/02/22 09:01:49;;;;;;;8.52;2.22;;;5.60;99.90;;;;;;5003632;28;20423;-73
2022/02/22 09:04:15;;;;;;;13.30;2.20;;;5.60;99.90;;;;;;4996947;28;20037;-72
2022/02/22 09:06:40;;;;;;;5.35;1.52;;;5.60;99.90;;;;;;4994161;28;20479;-73
2022/02/22 09:09:06;;;;;;;8.65;2.05;;;5.60;99.90;;;;;;4992246;28;20026;-73
2022/02/22 09:11:31;;;;;;;8.02;1.83;;;5.60;99.90;;;;;;4976762;28;20030;-73
2022/02/22 09:13:57;;;;;;;8.27;2.05;;;5.60;99.90;;;;;;4993204;28;20109;-73
2022/02/22 09:16:23;;;;;;;8.77;2.30;;;5.70;99.90;;;;;;4994334;28;20030;-73
2022/02/22 09:18:48;;;;;;;11.15;2.17;;;5.70;99.90;;;;;;4992959;28;20423;-73
2022/02/22 09:21:14;;;;;;;10.25;2.08;;;5.80;99.90;;;;;;4993820;28;20077;-72
2022/02/22 09:23:40;;;;;;;8.57;2.10;;;6.00;99.90;;;;;;4993505;28;20041;-73
2022/02/22 09:26:06;;;;;;;10.82;2.13;;;6.10;99.90;;;;;;4995016;28;20068;-73
2022/02/22 09:28:31;;;;;;;5.80;1.65;;;6.10;99.90;;;;;;4992448;28;20114;-73
2022/02/22 09:30:57;;;;;;;7.88;1.58;;;6.20;99.90;;;;;;5002186;28;20026;-73
2022/02/22 09:33:22;;;;;;;10.07;1.75;;;6.30;99.90;;;;;;4993275;28;20038;-74
2022/02/22 09:35:48;;;;;;;6.97;2.03;;;6.30;99.90;;;;;;4993621;28;20050;-74
2022/02/22 09:38:14;;;;;;;5.72;2.13;;;6.40;99.90;;;;;;4991578;28;20024;-73
2022/02/22 09:40:40;;;;;;;4.43;1.42;;;6.50;99.90;;;;;;4975805;28;20157;-73
2022/02/22 09:43:05;;;;;;;11.02;2.15;;;6.60;99.90;;;;;;4992680;28;20050;-74
2022/02/22 09:45:31;;;;;;;5.43;2.20;;;6.80;99.90;;;;;;4993280;28;20065;-73
2022/02/22 09:47:58;;;;;;;11.50;2.25;;;6.80;99.90;;;;;;4992131;28;20046;-73
2022/02/22 09:50:24;;;;;;;12.60;1.98;;;6.80;99.90;;;;;;4993539;28;20018;-73
2022/02/22 09:52:50;;;;;;;10.07;2.28;;;6.80;99.90;;;;;;4962945;28;20109;-74
2022/02/22 09:55:16;;;;;;;7.72;1.88;;;6.90;99.90;;;;;;4975641;28;20501;-74
2022/02/22 09:57:41;;;;;;;4.65;1.60;;;7.00;99.90;;;;;;4974726;28;20022;-74
2022/02/22 10:00:18;;;;;;;12.80;2.58;;;7.00;99.90;;;;;;4992581;28;20494;-74
2022/02/22 10:02:44;;;;;;;7.85;1.88;;;7.00;99.90;;;;;;4975880;28;20027;-74
2022/02/22 10:05:27;;;;;;;6.35;1.58;;;7.00;99.90;;;;;;4992918;28;20038;-73
2022/02/22 10:07:52;;;;;;;8.30;1.50;;;7.00;99.90;;;;;;4989730;28;20487;-73
2022/02/22 10:10:18;;;;;;;9.32;3.55;;;7.00;99.90;;;;;;4992723;28;20038;-73
2022/02/22 10:12:44;;;;;;;8.02;2.10;;;7.00;99.90;;;;;;4991767;28;20030;-73
2022/02/22 10:15:10;;;;;;;7.70;1.85;;;7.00;99.90;;;;;;4979857;28;20376;-74
2022/02/22 10:17:41;;;;;;;8.98;1.83;;;7.00;99.90;;;;;;4983875;28;20153;-74
2022/02/22 10:20:09;;;;;;;9.98;1.83;;;7.00;99.90;;;;;;4992780;28;20030;-74
2022/02/22 10:22:49;;;;;;;12.52;2.78;;;7.00;99.90;;;;;;4992428;28;20042;-73
2022/02/22 10:25:15;;;;;;;8.35;1.90;;;7.00;99.90;;;;;;4992747;28;20105;-74
2022/02/22 10:27:52;;;;;;;8.00;1.80;;;7.00;99.90;;;;;;4991410;28;20026;-74
2022/02/22 10:30:28;;;;;;;5.35;1.67;;;7.10;99.90;;;;;;4992460;28;20030;-74
2022/02/22 10:32:55;;;;;;;9.48;1.67;;;7.10;99.90;;;;;;4992027;28;20165;-74
2022/02/22 10:35:47;;;;;;;6.90;1.77;;;7.10;99.90;;;;;;5003016;28;20051;-74
2022/02/22 10:38:21;;;;;;;9.55;2.10;;;7.20;99.90;;;;;;4986800;28;20070;-74
2022/02/22 10:40:57;;;;;;;7.45;1.60;;;7.30;99.90;;;;;;4992128;28;20038;-74
2022/02/22 10:43:25;;;;;;;8.15;2.00;;;7.40;99.90;;;;;;4991496;28;20026;-74
2022/02/22 10:45:52;;;;;;;4.15;1.40;;;7.50;99.90;;;;;;4991519;28;20045;-72
2022/02/22 10:48:35;;;;;;;5.88;1.45;;;7.60;99.90;;;;;;4989225;28;20014;-72
2022/02/22 10:51:12;;;;;;;9.32;1.65;;;7.50;99.90;;;;;;4992239;28;20029;-73
2022/02/22 10:53:43;;;;;;;6.07;1.63;;;7.60;99.90;;;;;;4991856;28;20038;-73
2022/02/22 10:56:11;;;;;;;6.43;1.42;;;7.60;99.90;;;;;;4974837;28;20034;-73
2022/02/22 10:58:43;;;;;;;5.45;1.75;;;7.60;99.90;;;;;;4990237;28;20034;-73
2022/02/22 11:01:13;;;;;;;5.63;1.60;;;7.60;99.90;;;;;;4967483;28;20026;-74
2022/02/22 11:03:39;;;;;;;7.63;1.60;;;7.60;99.90;;;;;;4974482;28;20065;-74
2022/02/22 11:06:05;;;;;;;9.70;1.48;;;7.60;99.90;;;;;;4991248;28;20026;-72
2022/02/22 11:08:31;;;;;;;7.47;1.55;;;7.60;99.90;;;;;;4991447;28;20030;-72
2022/02/22 11:11:18;;;;;;;7.18;1.88;;;7.60;99.90;;;;;;4987887;28;20034;-72
2022/02/22 11:14:00;;;;;;;6.93;1.80;;;7.60;99.90;;;;;;4983091;28;20035;-73
2022/02/22 11:16:26;;;;;;;10.40;1.67;;;7.70;99.90;;;;;;4967386;28;20022;-73
2022/02/22 11:18:54;;;;;;;4.20;1.33;;;7.70;99.90;;;;;;4990985;28;20517;-73
2022/02/22 11:21:23;;;;;;;8.73;1.95;;;7.70;99.90;;;;;;4969104;28;20065;-74
2022/02/22 11:23:49;;;;;;;5.07;1.55;;;7.70;99.90;;;;;;4991276;28;20035;-74
2022/02/22 11:26:18;;;;;;;8.23;1.92;;;7.80;99.90;;;;;;4989401;28;20073;-73
2022/02/22 11:28:56;;;;;;;6.60;1.33;;;7.90;99.90;;;;;;5016214;22;20127;-69
2022/02/22 11:31:29;;;;;;;6.57;1.83;;;7.90;99.90;;;;;;4995095;28;20061;-68
2022/02/22 11:34:00;;;;;;;6.82;1.23;;;7.90;99.90;;;;;;5002066;28;20113;-68
2022/02/22 11:36:34;;;;;;;9.65;2.03;;;7.90;99.90;;;;;;5011589;28;20050;-68
2022/02/22 11:39:00;;;;;;;7.22;1.45;;;7.90;99.90;;;;;;5009715;28;20018;-68
2022/02/22 11:41:28;;;;;;;7.03;1.90;;;7.90;99.90;;;;;;5010867;28;20022;-68
2022/02/22 11:43:58;;;;;;;4.28;1.55;;;7.80;99.90;;;;;;5010723;28;20037;-68
2022/02/22 11:46:44;;;;;;;7.07;1.65;;;7.70;99.90;;;;;;5010777;28;20057;-68
2022/02/22 11:49:18;;;;;;;5.40;1.73;;;7.70;99.90;;;;;;5008801;28;20026;-70
2022/02/22 11:51:47;;;;;;;9.20;1.85;;;7.60;99.90;;;;;;5007064;28;20169;-68
2022/02/22 11:54:20;;;;;;;7.13;1.70;;;7.60;99.90;;;;;;5006235;28;20033;-68
2022/02/22 11:56:47;;;;;;;9.85;2.17;;;7.70;99.90;;;;;;4990944;28;20079;-68
2022/02/22 11:59:18;;;;;;;7.05;1.80;;;7.70;99.90;;;;;;4997780;28;20049;-68
2022/02/22 12:01:46;;;;;;;7.68;1.42;;;7.70;99.90;;;;;;5010497;28;20389;-68
2022/02/22 12:04:22;;;;;;;6.40;1.85;;;7.80;99.90;;;;;;5009354;28;20029;-68
2022/02/22 12:06:49;;;;;;;10.20;1.83;;;7.80;99.90;;;;;;5010645;28;20104;-68
2022/02/22 12:09:15;;;;;;;8.45;1.75;;;7.80;99.90;;;;;;5001260;28;20118;-68
2022/02/22 12:11:40;;;;;;;5.05;1.80;;;7.90;99.90;;;;;;4992405;28;20034;-68
2022/02/22 12:14:11;;;;;;;8.80;1.98;;;7.90;99.90;;;;;;5010288;28;20399;-69
2022/02/22 12:16:43;;;;;;;8.20;2.30;;;8.00;99.90;;;;;;5012292;28;20471;-69
2022/02/22 12:19:11;;;;;;;9.07;1.85;;;8.00;99.90;;;;;;5010403;28;20049;-68
2022/02/22 12:21:37;;;;;;;12.65;1.92;;;8.00;99.90;;;;;;5013364;28;20025;-68
2022/02/22 12:24:04;;;;;;;13.55;3.10;;;8.10;99.90;;;;;;4999561;28;20112;-69
2022/02/22 12:26:30;;;;;;;10.38;2.40;;;8.10;99.90;;;;;;4993980;28;20037;-69
2022/02/22 12:29:03;;;;;;;11.93;2.40;;;8.10;99.90;;;;;;5010557;28;20034;-69
2022/02/22 12:31:34;;;;;;;8.70;2.38;;;8.10;99.90;;;;;;5028520;28;20030;-69
2022/02/22 12:34:05;;;;;;;10.77;2.10;;;8.10;99.90;;;;;;5014028;28;20036;-69
2022/02/22 12:36:31;;;;;;;12.70;2.58;;;8.10;99.90;;;;;;5012643;28;20022;-70
2022/02/22 12:39:00;;;;;;;11.10;2.60;;;8.00;99.90;;;;;;5009272;28;20037;-69
2022/02/22 12:41:31;;;;;;;11.07;2.45;;;8.00;99.90;;;;;;4993078;28;20124;-69
2022/02/22 12:43:57;;;;;;;11.32;2.72;;;8.00;99.90;;;;;;5011227;28;20037;-69
2022/02/22 12:46:22;;;;;;;10.88;3.00;;;7.90;99.90;;;;;;4995156;28;20034;-69
2022/02/22 12:48:48;;;;;;;13.80;3.58;;;7.90;99.90;;;;;;5011414;28;20036;-69
2022/02/22 12:51:23;;;;;;;14.75;2.92;;;7.80;99.90;;;;;;5005849;28;20387;-69
2022/02/22 12:54:19;;;;;;;12.70;2.75;;;7.80;99.90;;;;;;5011902;28;20081;-69